Terminal Aerodrome Forecast
Issued by NWS

Home | Current Version | Previous Version | Text Only | Print | Product List | Glossary On
Versions: 1 2 3 4 5 6 7 8 9 10 11 12 13 14
000
FTUS44 KTSA 282105 AAA
TAFXNA
TAF AMD
KXNA 282105Z 2821/2918 13011KT P6SM VCTS FEW070CB SCT090 BKN110
      TEMPO 2821/2823 3SM -TSRA BR BKN050CB
     FM290100 12004KT P6SM SCT250
     FM291600 VRB03KT P6SM SCT040=

USA.gov is the U.S. government's official web portal to all federal, state and local government web resources and services.